地図

経路データ

SID SEASON NUMBER BASIN SUBBASIN NAME ISO_TIME NATURE LAT LON WMO_WIND WMO_PRES WMO_AGENCY TRACK_TYPE DIST2LAND LANDFALL IFLAG USA_AGENCY USA_ATCF_ID USA_LAT USA_LON USA_RECORD USA_STATUS USA_WIND USA_PRES USA_SSHS USA_R34_NE USA_R34_SE USA_R34_SW USA_R34_NW USA_R50_NE USA_R50_SE USA_R50_SW USA_R50_NW USA_R64_NE USA_R64_SE USA_R64_SW USA_R64_NW USA_POCI USA_ROCI USA_RMW USA_EYE TOKYO_LAT TOKYO_LON TOKYO_GRADE TOKYO_WIND TOKYO_PRES TOKYO_R50_DIR TOKYO_R50_LONG TOKYO_R50_SHORT TOKYO_R30_DIR TOKYO_R30_LONG TOKYO_R30_SHORT TOKYO_LAND CMA_LAT CMA_LON CMA_CAT CMA_WIND CMA_PRES HKO_LAT HKO_LON HKO_CAT HKO_WIND HKO_PRES NEWDELHI_LAT NEWDELHI_LON NEWDELHI_GRADE NEWDELHI_WIND NEWDELHI_PRES NEWDELHI_CI NEWDELHI_DP NEWDELHI_POCI REUNION_LAT REUNION_LON REUNION_TYPE REUNION_WIND REUNION_PRES REUNION_TNUM REUNION_CI REUNION_RMW REUNION_R34_NE REUNION_R34_SE REUNION_R34_SW REUNION_R34_NW REUNION_R50_NE REUNION_R50_SE REUNION_R50_SW REUNION_R50_NW REUNION_R64_NE REUNION_R64_SE REUNION_R64_SW REUNION_R64_NW BOM_LAT BOM_LON BOM_TYPE BOM_WIND BOM_PRES BOM_TNUM BOM_CI BOM_RMW BOM_R34_NE BOM_R34_SE BOM_R34_SW BOM_R34_NW BOM_R50_NE BOM_R50_SE BOM_R50_SW BOM_R50_NW BOM_R64_NE BOM_R64_SE BOM_R64_SW BOM_R64_NW BOM_ROCI BOM_POCI BOM_EYE BOM_POS_METHOD BOM_PRES_METHOD NADI_LAT NADI_LON NADI_CAT NADI_WIND NADI_PRES WELLINGTON_LAT WELLINGTON_LON WELLINGTON_WIND WELLINGTON_PRES DS824_LAT DS824_LON DS824_STAGE DS824_WIND DS824_PRES TD9636_LAT TD9636_LON TD9636_STAGE TD9636_WIND TD9636_PRES TD9635_LAT TD9635_LON TD9635_WIND TD9635_PRES TD9635_ROCI NEUMANN_LAT NEUMANN_LON NEUMANN_CLASS NEUMANN_WIND NEUMANN_PRES MLC_LAT MLC_LON MLC_CLASS MLC_WIND MLC_PRES USA_GUST BOM_GUST BOM_GUST_PER REUNION_GUST REUNION_GUST_PER USA_SEAHGT USA_SEARAD_NE USA_SEARAD_SE USA_SEARAD_SW USA_SEARAD_NW STORM_SPEED STORM_DIR
1928296N12072 1928 62 NI AS NOT_NAMED 1928-10-22 00:00:00 TS 12.4000 71.8000 main 328 328 _________O____ -1 12.4000 71.8000 TC 30 4 306
1928296N12072 1928 62 NI AS NOT_NAMED 1928-10-22 03:00:00 TS 12.5267 71.6251 main 347 345 _________PO___ -1 12.5901 71.5376 TC 30 12.4000 71.8000 1 5 311
1928296N12072 1928 62 NI AS NOT_NAMED 1928-10-22 06:00:00 TS 12.7288 71.4101 main 364 362 _________OP___ -1 12.8000 71.3000 TC 30 12.6221 71.5754 1 6 317
1928296N12072 1928 62 NI AS NOT_NAMED 1928-10-22 09:00:00 TS 12.9579 71.2073 main 372 372 _________PP___ -1 13.0424 71.0999 TC 30 12.8452 71.3504 1 6 320
1928296N12072 1928 62 NI AS NOT_NAMED 1928-10-22 12:00:00 TS 13.1854 71.0126 main 378 372 _________OP___ -1 13.3000 70.9000 TC 30 13.0708 71.1253 1 6 318
1928296N12072 1928 62 NI AS NOT_NAMED 1928-10-22 15:00:00 TS 13.4250 70.7787 main 384 379 _________PO___ -1 13.5500 70.6575 TC 30 13.3000 70.9000 1 7 316
1928296N12072 1928 62 NI AS NOT_NAMED 1928-10-22 18:00:00 TS 13.6673 70.5366 main 398 398 _________OP___ -1 13.8000 70.4000 TC 30 13.5345 70.6731 1 7 316
1928296N12072 1928 62 NI AS NOT_NAMED 1928-10-22 21:00:00 TS 13.9098 70.3009 main 410 406 _________PP___ -1 14.0424 70.1649 TC 30 13.7772 70.4370 1 7 316
1928296N12072 1928 62 NI AS NOT_NAMED 1928-10-23 00:00:00 TS 14.1657 70.0412 main 427 427 _________OP___ -1 14.3000 69.9000 TC 30 14.0313 70.1824 1 8 314
1928296N12072 1928 62 NI AS NOT_NAMED 1928-10-23 03:00:00 TS 14.4463 69.7325 main 450 445 _________PO___ -1 14.5925 69.5650 TC 30 14.3000 69.9000 1 9 312
1928296N12072 1928 62 NI AS NOT_NAMED 1928-10-23 06:00:00 TS 14.7408 69.3893 main 463 459 _________OP___ -1 14.9000 69.2000 TC 30 14.5816 69.5787 1 9 311
1928296N12072 1928 62 NI AS NOT_NAMED 1928-10-23 09:00:00 TS 15.0387 69.0399 main 489 486 _________PP___ -1 15.1999 68.8499 TC 30 14.8775 69.2299 1 9 311
1928296N12072 1928 62 NI AS NOT_NAMED 1928-10-23 12:00:00 TS 15.3423 68.6830 main 510 507 _________OP___ -1 15.5000 68.5000 TC 30 15.1847 68.8661 1 9 311
1928296N12072 1928 62 NI AS NOT_NAMED 1928-10-23 15:00:00 TS 15.6462 68.3249 main 543 541 _________PO___ -1 15.7924 68.1499 TC 30 15.5000 68.5000 1 9 312
1928296N12072 1928 62 NI AS NOT_NAMED 1928-10-23 18:00:00 TS 15.9609 67.9669 main 568 568 _________OP___ -1 16.1000 67.8000 TC 30 15.8219 68.1337 1 10 313
1928296N12072 1928 62 NI AS NOT_NAMED 1928-10-23 21:00:00 TS 16.3000 67.6025 main 596 587 _________PP___ -1 16.4500 67.4350 TC 30 16.1500 67.7700 1 10 315
1928296N12072 1928 62 NI AS NOT_NAMED 1928-10-24 00:00:00 TS 16.6391 67.2606 main 587 571 _________OP___ -1 16.8000 67.1000 TC 30 16.4782 67.4212 1 9 317
1928296N12072 1928 62 NI AS NOT_NAMED 1928-10-24 03:00:00 TS 16.9537 66.9674 main 568 563 _________PO___ -1 17.1074 66.8348 TC 30 16.8000 67.1000 1 8 319
1928296N12072 1928 62 NI AS NOT_NAMED 1928-10-24 06:00:00 TS 17.2434 66.7023 main 570 559 _________OP___ -1 17.4000 66.6000 TC 30 17.0867 66.8045 1 8 319
1928296N12072 1928 62 NI AS NOT_NAMED 1928-10-24 09:00:00 TS 17.5274 66.4409 main 566 550 _________PP___ -1 17.6850 66.3424 TC 30 17.3698 66.5394 1 8 321
1928296N12072 1928 62 NI AS NOT_NAMED 1928-10-24 12:00:00 TS 17.8340 66.2023 main 558 542 _________OP___ -1 18.0000 66.1000 TC 30 17.6680 66.3046 1 8 327
1928296N12072 1928 62 NI AS NOT_NAMED 1928-10-24 15:00:00 TS 18.1887 65.9888 main 542 524 _________PO___ -1 18.3775 65.8775 TC 30 18.0000 66.1000 1 9 332
1928296N12072 1928 62 NI AS NOT_NAMED 1928-10-24 18:00:00 TS 18.5904 65.7865 main 524 504 _________OP___ -1 18.8000 65.7000 TC 30 18.3809 65.8731 1 9 337
1928296N12072 1928 62 NI AS NOT_NAMED 1928-10-24 21:00:00 TS 19.0162 65.6181 main 504 479 _________PP___ -1 19.2350 65.5551 TC 30 18.7974 65.6811 1 9 344
1928296N12072 1928 62 NI AS NOT_NAMED 1928-10-25 00:00:00 TS 19.4701 65.5242 main 471 443 _________OP___ -1 19.7000 65.5000 TC 30 19.2402 65.5484 1 9 355
1928296N12072 1928 62 NI AS NOT_NAMED 1928-10-25 03:00:00 TS 19.9500 65.5275 main 443 402 _________PO___ -1 20.2000 65.5549 TC 30 19.7000 65.5000 1 10 5
1928296N12072 1928 62 NI AS NOT_NAMED 1928-10-25 06:00:00 TS 20.4282 65.6215 main 402 356 _________OP___ -1 20.7000 65.7000 TC 30 20.1564 65.5430 1 10 14
1928296N12072 1928 62 NI AS NOT_NAMED 1928-10-25 09:00:00 TS 20.8887 65.7749 main 356 319 _________PP___ -1 21.1500 65.8776 TC 30 20.6273 65.6722 1 10 20
1928296N12072 1928 62 NI AS NOT_NAMED 1928-10-25 12:00:00 TS 21.3548 65.9827 main 314 265 _________OP___ -1 21.6000 66.1000 TC 30 21.1096 65.8653 1 10 23
1928296N12072 1928 62 NI AS NOT_NAMED 1928-10-25 15:00:00 TS 21.8462 66.2176 main 265 207 _________PO___ -1 22.0925 66.3352 TC 30 21.6000 66.1000 1 11 25
1928296N12072 1928 62 NI AS NOT_NAMED 1928-10-25 18:00:00 TS 22.3119 66.4610 main 201 144 _________OP___ -1 22.6000 66.6000 TC 30 22.0958 66.3568 1 11 27
1928296N12072 1928 62 NI AS NOT_NAMED 1928-10-25 21:00:00 TS 22.7983 66.7339 main 144 90 _________PP___ -1 23.1026 66.8920 TC 30 22.5954 66.6285 1 11 28
1928296N12072 1928 62 NI AS NOT_NAMED 1928-10-26 00:00:00 TS 23.2649 67.0073 main 82 45 _________OP___ -1 23.6000 67.2000 TC 30 23.0973 66.9110 1 9 28
1928296N12072 1928 62 NI AS NOT_NAMED 1928-10-26 03:00:00 NR 23.6000 67.2000 main 45 __________O___ -1 TC 23.6000 67.2000 1 8 28

IBTrACS Databaseについて

本データベースは、米国NOAAが公開する1842年以降の世界の熱帯低気圧のベストトラックデータアーカイブInternational Best Track Archive for Climate Stewardship (IBTrACS)を、ウェブで閲覧しやすい形式に変換したものです。

最終更新日:2021-11-26